Metar Cercanos

 

LEPA - Palma De Mallorc, Spain
Distance from station: ONO 38km
Actualización: 17/07/2018 15:30
Few Clouds
Few Clouds
 Viento del SO
Viento: SO 28 km/h
Temperatura: 29°C
Indice Calor: 33°C
Rocío: 24°C
Humedad: 74%
Barómetro: 1017 hPa
Clouds: Few Clouds
Visibility: 10 km
Cloud details: Few Clouds 853 m
2018/07/17 13:30 LEPA 171330Z 22015KT 9999 FEW028 29/24 Q1017 NOSIG
LEMH - Mahon/Menorca Is, Spain
Distance from station: ENE 105km
Actualización: 17/07/2018 15:30
Few Clouds
Few Clouds
 Viento del varies
Viento: varies 7 km/h, Racha: 28 km/h
Temperatura: 29°C
Indice Calor: 29°C
Rocío: 17°C
Humedad: 48%
Barómetro: 1018 hPa
Clouds: Few Clouds
Visibility: 10 km
Cloud details: Few Clouds 1463 m
2018/07/17 13:30 LEMH 171330Z VRB04G15KT 9999 FEW048 29/17 Q1018
 
LEIB - Ibiza/Es Codola, Spain
Distance from station: OSO 165km
Actualización: 17/07/2018 15:30
Few Clouds
Few Clouds
 Viento del ESE
Viento: ESE 11 km/h
Temperatura: 29°C
Indice Calor: 32°C
Rocío: 22°C
Humedad: 66%
Barómetro: 1017 hPa
Clouds: Few Clouds
Visibility: 10 km
Cloud details: Few Clouds 914 m
2018/07/17 13:30 LEIB 171330Z 11006KT 050V190 9999 FEW030 29/22 Q1017 NOSIG
LEBL - Barcelona Airpor, Spain
Distance from station: NNO 225km
Actualización: 17/07/2018 15:30
Despejado
Despejado
 Viento del ESE
Viento: ESE 13 km/h
Temperatura: 29°C
Indice Calor: 31°C
Rocío: 21°C
Humedad: 62%
Barómetro: 1017 hPa
Resumen: Despejado
Visibility: greater than 10 km
2018/07/17 13:30 LEBL 171330Z 11007KT 070V150 CAVOK 29/21 Q1017 NOSIG
 
LEVC - Valencia (civ/Mi, Spain
Distance from station: NO 188km
Actualización: 17/07/2018 15:30
Few Clouds
Few Clouds
 Viento del ESE
Viento: ESE 20 km/h
Temperatura: 30°C
Indice Calor: 31°C
Rocío: 17°C
Humedad: 46%
Barómetro: 1017 hPa
Clouds: Few Clouds
Visibility: 10 km
Cloud details: Few Clouds 1219 m
2018/07/17 13:30 LEVC 171330Z 12011KT 080V160 9999 FEW040 30/17 Q1017 NOSIG
LEGE - Gerona/Costa Bra, Spain
Distance from station: N 276km
Actualización: 17/07/2018 15:30
Parcialmente nuboso
Parcialmente nuboso
 Viento del S
Viento: S 26 km/h
Temperatura: 29°C
Indice Calor: 29°C
Rocío: 18°C
Humedad: 51%
Barómetro: 1017 hPa
Clouds: Parcialmente nuboso
Visibility: 10 km
Cloud details: Few Clouds 914 m
Parcialmente nuboso 1676 m
2018/07/17 13:30 LEGE 171330Z 17014KT 130V190 9999 FEW030 SCT055 29/18 Q1017
 
LEAL - Alicante/El Alte, Spain
Distance from station: OSO 344km
Actualización: 17/07/2018 15:30
Despejado
Despejado
 Viento del E
Viento: E 17 km/h
Temperatura: 30°C
Indice Calor: 31°C
Rocío: 19°C
Humedad: 52%
Barómetro: 1017 hPa
Resumen: Despejado
Visibility: greater than 10 km
2018/07/17 13:30 LEAL 171330Z 09009KT 060V120 CAVOK 30/19 Q1017 NOSIG
LEAM - Almeria Airport, Spain
Distance from station: SSO 56km
Actualización: 17/07/2018 15:30
Despejado
Despejado
 Viento del ENE
Viento: ENE 28 km/h, Racha: 46 km/h
Temperatura: 36°C
Rocío: 4°C
Humedad: 13%
Barómetro: 1014 hPa
Resumen: Despejado
Visibility: greater than 10 km
2018/07/17 13:30 LEAM 171330Z 07015G25KT 040V120 CAVOK 36/04 Q1014
 
LEZG - Zaragoza (mil/Ci, Spain
Distance from station: NO 431km
Actualización: 17/07/2018 15:30
Despejado
Despejado
 Viento del ENE
Viento: ENE 6 km/h
Temperatura: 29°C
Rocío: 11°C
Humedad: 33%
Barómetro: 1017 hPa
Resumen: Despejado
Visibility: greater than 10 km
2018/07/17 13:30 LEZG 171330Z 07003KT CAVOK 29/11 Q1017
LEMD - Madrid/Barajas, Spain
Distance from station: ONO 234km
Actualización: 17/07/2018 15:30
Despejado
Despejado
 Viento del O
Viento: O 9 km/h
Temperatura: 33°C
Rocío: 7°C
Humedad: 20%
Barómetro: 1017 hPa
Resumen: Despejado
Visibility: greater than 10 km
2018/07/17 13:30 LEMD 171330Z 26005KT 190V330 CAVOK 33/07 Q1017 NOSIG
 
LEGR - Granada Airport, Spain
Distance from station: OSO 62km
Actualización: 17/07/2018 15:30
Despejado
Despejado
 Viento del varies
Viento: varies 4 km/h
Temperatura: 37°C
Rocío: 5°C
Humedad: 14%
Barómetro: 1015 hPa
Resumen: Despejado
Visibility: greater than 10 km
2018/07/17 13:30 LEGR 171330Z VRB02KT CAVOK 37/05 Q1015
LEMG - Malaga (civ/Mil), Spain
Distance from station: OSO 227km
Actualización: 17/07/2018 15:30
Despejado
Despejado
 Viento del ESE
Viento: ESE 15 km/h
Temperatura: 27°C
Indice Calor: 27°C
Rocío: 14°C
Humedad: 45%
Barómetro: 1015 hPa
Resumen: Despejado
Visibility: greater than 10 km
2018/07/17 13:30 LEMG 171330Z 12008KT 090V160 CAVOK 27/14 Q1015 NOSIG
 
LEZL - Sevilla (civ/Mil, Spain
Distance from station: S 318km
Actualización: 17/07/2018 15:30
Despejado
Despejado
 Viento del NO
Viento: NO 7 km/h
Temperatura: 35°C
Rocío: 10°C
Humedad: 22%
Barómetro: 1012 hPa
Resumen: Despejado
Visibility: greater than 10 km
2018/07/17 13:30 LEZL 171330Z 32004KT CAVOK 35/10 Q1012 NOSIG
LEVT - Vitoria, Spain
Distance from station: NO 226km
Actualización: 17/07/2018 15:30
Few Clouds
Few Clouds
 Viento del NNE
Viento: NNE 13 km/h
Temperatura: 25°C
Rocío: 15°C
Humedad: 54%
Barómetro: 1019 hPa
Clouds: Few Clouds
Visibility: 10 km
Cloud details: Few Clouds 1219 m
2018/07/17 13:30 LEVT 171330Z 02007KT 320V070 9999 FEW040 25/15 Q1019
 
LEBB - Bilbao/Sondica, Spain
Distance from station: NNO 235km
Actualización: 17/07/2018 15:30
Parcialmente nuboso
Parcialmente nuboso
 Viento del NE
Viento: NE 17 km/h
Temperatura: 27°C
Indice Calor: 28°C
Rocío: 19°C
Humedad: 62%
Barómetro: 1018 hPa
Clouds: Parcialmente nuboso
Visibility: 10 km
Cloud details: Parcialmente nuboso 914 m
Parcialmente nuboso 1219 m
2018/07/17 13:30 LEBB 171330Z 04009KT 340V120 9999 SCT030 SCT040 27/19 Q1018 NOSIG
LESO - San Sebastian/Fu, Spain
Distance from station: N 231km
Actualización: 17/07/2018 15:30
Parcialmente nuboso
Parcialmente nuboso
 Viento del NNE
Viento: NNE 11 km/h
Temperatura: 25°C
Rocío: 19°C
Humedad: 69%
Barómetro: 1019 hPa
Clouds: Parcialmente nuboso
Visibility: 10 km
Cloud details: Parcialmente nuboso 701 m
2018/07/17 13:30 LESO 171330Z 02006KT 340V060 9999 SCT023 25/19 Q1019
 
LEVD - Valladolid(Mil/C, Spain
Distance from station: ONO 239km
Actualización: 17/07/2018 15:30
Despejado
Despejado
 Viento del SSO
Viento: SSO 11 km/h
Temperatura: 27°C
Rocío: 9°C
Humedad: 32%
Barómetro: 1018 hPa
Resumen: Despejado
Visibility: greater than 10 km
2018/07/17 13:30 LEVD 171330Z 20006KT 140V280 CAVOK 27/09 Q1018
LESA - Salamanca (civ/M, Spain
Distance from station: ONO 349km
Actualización: 17/07/2018 15:30
Few Clouds
Few Clouds
 Viento del N
Viento: N 9 km/h
Temperatura: 29°C
Rocío: 10°C
Humedad: 31%
Barómetro: 1018 hPa
Clouds: Few Clouds
Visibility: 10 km
Cloud details: Few Clouds 1067 m
2018/07/17 13:30 LESA 171330Z 01005KT 320V080 9999 FEW035 29/10 Q1018
 
LEXJ - Santander/Paraya, Spain
Distance from station: NNO 247km
Actualización: 17/07/2018 15:30
Muy nuboso
Muy nuboso
 Viento del NE
Viento: NE 11 km/h
Temperatura: 23°C
Rocío: 18°C
Humedad: 74%
Barómetro: 1019 hPa
Clouds: Muy nuboso
Visibility: 10 km
Cloud details: Few Clouds 823 m
Muy nuboso 1463 m
2018/07/17 13:30 LEXJ 171330Z 04006KT 330V090 9999 FEW027 BKN048 23/18 Q1019
LEAS - Asturias/Aviles, Spain
Distance from station: NO 214km
Actualización: 17/07/2018 15:30
Muy nuboso
Muy nuboso
 Viento del NO
Viento: NO 7 km/h
Temperatura: 19°C
Rocío: 17°C
Humedad: 88%
Barómetro: 1020 hPa
Clouds: Muy nuboso
Visibility: 10 km
Cloud details: Few Clouds 305 m
Parcialmente nuboso 427 m
Muy nuboso 610 m
2018/07/17 13:30 LEAS 171330Z 31004KT 260V010 9999 FEW010 SCT014 BKN020 19/17 Q1020 NOSIG
 
LECO - La Coruna/Alvedr, Spain
Distance from station: ONO 222km
Actualización: 17/07/2018 15:30
Muy nuboso
Muy nuboso
 Viento del N
Viento: N 19 km/h
Temperatura: 20°C
Rocío: 14°C
Humedad: 69%
Barómetro: 1019 hPa
Clouds: Muy nuboso
Visibility: 10 km
Cloud details: Muy nuboso 1067 m
2018/07/17 13:30 LECO 171330Z 36010KT 330V050 9999 BKN035 20/14 Q1019 NOSIG
LEVX - Vigo/Peinador, Spain
Distance from station: O 214km
Actualización: 17/07/2018 15:30
Few Clouds
Few Clouds
 Viento del O
Viento: O 17 km/h
Temperatura: 25°C
Rocío: 17°C
Humedad: 61%
Barómetro: 1018 hPa
Clouds: Few Clouds
Visibility: 10 km
Cloud details: Few Clouds 1036 m
2018/07/17 13:30 LEVX 171330Z 26009KT 210V300 9999 FEW034 25/17 Q1018 NOSIG